Time;durP1;ratioP1;P1;durP2;ratioP2;P2;SDS_P1;SDS_P2;PMS_P1;PMS_P2;Temp;Humidity;BMP_temperature;BMP_pressure;BME280_temperature;BME280_humidity;BME280_pressure;Samples;Min_cycle;Max_cycle;Signal;HPM_P1;HPM_P2
2023/07/11 00:02:16;;;;;;;7.10;2.23;;;;;;;18.34;94.55;101389.16;5032354;28;20443;-73
2023/07/11 00:04:43;;;;;;;6.77;2.37;;;;;;;18.30;94.32;101393.69;5031701;28;20464;-73
2023/07/11 00:07:09;;;;;;;5.63;1.90;;;;;;;18.20;95.47;101383.94;5030887;28;20518;-74
2023/07/11 00:09:36;;;;;;;6.40;2.20;;;;;;;18.21;95.97;101390.22;5032965;28;20478;-74
2023/07/11 00:12:05;;;;;;;7.20;2.60;;;;;;;18.15;95.75;101384.94;5031721;28;20534;-75
2023/07/11 00:14:32;;;;;;;6.37;2.37;;;;;;;18.17;95.35;101392.81;5033118;28;20887;-75
2023/07/11 00:16:58;;;;;;;6.10;2.13;;;;;;;18.16;94.93;101393.97;5032736;28;20906;-74
2023/07/11 00:19:25;;;;;;;6.50;2.10;;;;;;;18.13;94.66;101389.94;5031862;28;20491;-75
2023/07/11 00:21:51;;;;;;;7.50;2.43;;;;;;;18.12;95.12;101387.53;5033810;28;20530;-76
2023/07/11 00:24:18;;;;;;;10.13;2.37;;;;;;;18.02;95.70;101382.44;5030921;28;20891;-75
2023/07/11 00:26:44;;;;;;;6.23;2.00;;;;;;;18.02;95.68;101387.91;5032235;28;20483;-75
2023/07/11 00:29:17;;;;;;;6.83;2.40;;;;;;;18.06;95.13;101388.84;5026997;28;20569;-75
2023/07/11 00:31:44;;;;;;;8.70;2.73;;;;;;;18.03;94.16;101384.03;5033364;28;20526;-75
2023/07/11 00:34:10;;;;;;;7.57;2.53;;;;;;;17.98;94.02;101389.72;5032373;28;20498;-75
2023/07/11 00:36:37;;;;;;;6.57;2.30;;;;;;;17.90;94.70;101392.16;5033688;28;20518;-76
2023/07/11 00:39:05;;;;;;;5.53;1.97;;;;;;;17.84;95.67;101396.25;5031074;28;20483;-75
2023/07/11 00:41:31;;;;;;;7.50;2.37;;;;;;;17.82;95.85;101393.00;5030949;28;20979;-77
2023/07/11 00:43:58;;;;;;;7.70;2.07;;;;;;;17.81;96.36;101394.16;5033577;28;20534;-73
2023/07/11 00:46:26;;;;;;;7.30;2.20;;;;;;;17.81;96.13;101388.66;5032654;28;20483;-74
2023/07/11 00:48:55;;;;;;;7.00;2.60;;;;;;;17.75;95.55;101387.25;5030796;28;20515;-75
2023/07/11 00:51:27;;;;;;;11.40;2.00;;;;;;;17.75;95.38;101390.00;5033599;28;20438;-76
2023/07/11 00:53:54;;;;;;;6.77;2.60;;;;;;;17.74;95.72;101393.06;5033528;28;20452;-76
2023/07/11 00:56:24;;;;;;;6.73;2.50;;;;;;;17.76;95.42;101382.56;5031275;28;20465;-76
2023/07/11 00:58:52;;;;;;;7.20;2.10;;;;;;;17.75;95.26;101384.53;5032975;28;20451;-76
2023/07/11 01:01:20;;;;;;;6.10;2.60;;;;;;;17.68;95.43;101377.91;5033851;28;20595;-76
2023/07/11 01:03:51;;;;;;;7.93;3.13;;;;;;;17.62;95.95;101374.56;5032567;28;20467;-76
2023/07/11 01:06:21;;;;;;;7.30;2.80;;;;;;;17.63;96.12;101387.13;5015897;28;20480;-76
2023/07/11 01:08:50;;;;;;;6.93;2.40;;;;;;;17.60;96.24;101387.75;5014396;28;20550;-76
2023/07/11 01:11:17;;;;;;;9.33;2.53;;;;;;;17.58;94.99;101384.56;5013773;28;20459;-76
2023/07/11 01:13:45;;;;;;;7.33;2.70;;;;;;;17.54;96.07;101386.34;5020016;28;20943;-76
2023/07/11 01:16:11;;;;;;;6.23;2.17;;;;;;;17.49;95.84;101392.00;5032738;28;20435;-76
2023/07/11 01:18:39;;;;;;;7.87;2.97;;;;;;;17.43;95.95;101385.09;5036707;28;20467;-76
2023/07/11 01:21:08;;;;;;;8.13;2.27;;;;;;;17.36;96.24;101385.59;5037631;28;20446;-76
2023/07/11 01:23:36;;;;;;;6.17;2.63;;;;;;;17.35;96.94;101393.03;5035766;28;20545;-76
2023/07/11 01:26:05;;;;;;;7.40;2.50;;;;;;;17.38;96.30;101386.88;5034928;28;20577;-76
2023/07/11 01:28:32;;;;;;;9.03;2.90;;;;;;;17.42;96.38;101386.22;5034401;28;20465;-76
2023/07/11 01:30:59;;;;;;;6.63;2.40;;;;;;;17.43;95.70;101377.66;5035960;28;20455;-76
2023/07/11 01:33:26;;;;;;;6.20;1.93;;;;;;;17.32;96.97;101385.44;5036665;28;21046;-76
2023/07/11 01:35:53;;;;;;;6.70;2.57;;;;;;;17.28;96.63;101380.97;5033550;28;20464;-76
2023/07/11 01:38:21;;;;;;;6.90;2.60;;;;;;;17.24;97.08;101375.31;5036489;28;20474;-76
2023/07/11 01:40:50;;;;;;;6.03;2.30;;;;;;;17.24;96.56;101378.06;5035108;28;21013;-76
2023/07/11 01:43:19;;;;;;;7.10;3.00;;;;;;;17.22;96.32;101384.97;5035384;28;20986;-76
2023/07/11 01:45:46;;;;;;;6.43;2.40;;;;;;;17.14;97.50;101381.16;5034863;28;20570;-76
2023/07/11 01:48:13;;;;;;;6.47;2.47;;;;;;;17.09;97.99;101375.84;5034734;28;20495;-75
2023/07/11 01:50:39;;;;;;;6.77;2.50;;;;;;;17.11;97.64;101379.06;5034171;28;20506;-76
2023/07/11 01:53:06;;;;;;;8.03;2.57;;;;;;;17.08;97.07;101377.75;5036599;28;20446;-76
2023/07/11 01:55:32;;;;;;;8.10;1.80;;;;;;;17.04;97.42;101378.75;5036135;28;20530;-76
2023/07/11 01:58:00;;;;;;;12.93;2.70;;;;;;;17.04;98.60;101381.47;5034992;28;20506;-76
2023/07/11 02:00:27;;;;;;;7.30;2.97;;;;;;;17.02;98.73;101378.28;5033755;28;21006;-75
2023/07/11 02:02:54;;;;;;;6.90;2.53;;;;;;;17.01;97.84;101373.94;5034639;28;21049;-76
2023/07/11 02:05:21;;;;;;;8.53;3.30;;;;;;;17.03;95.53;101375.19;5034584;28;20459;-75
2023/07/11 02:07:48;;;;;;;6.30;2.20;;;;;;;16.98;94.60;101372.66;5034266;28;20463;-75
2023/07/11 02:10:15;;;;;;;7.47;2.50;;;;;;;16.87;95.16;101377.66;5035370;28;20509;-76
2023/07/11 02:12:41;;;;;;;7.63;2.77;;;;;;;16.82;94.18;101380.56;5033142;28;20514;-76
2023/07/11 02:15:11;;;;;;;7.50;2.80;;;;;;;16.80;95.25;101371.06;5035338;28;20470;-76
2023/07/11 02:17:38;;;;;;;6.60;2.70;;;;;;;16.77;95.96;101375.22;5034252;28;20475;-76
2023/07/11 02:20:06;;;;;;;10.23;2.50;;;;;;;16.73;97.22;101377.00;5035786;28;20526;-76
2023/07/11 02:22:32;;;;;;;6.03;2.37;;;;;;;16.64;98.67;101368.81;5033687;28;20848;-76
2023/07/11 02:24:59;;;;;;;7.97;2.90;;;;;;;16.67;98.30;101375.53;5036158;28;20450;-75
2023/07/11 02:27:25;;;;;;;6.80;2.50;;;;;;;16.71;98.10;101373.78;5034335;28;20993;-76
2023/07/11 02:29:52;;;;;;;6.77;2.30;;;;;;;16.60;98.34;101370.56;5035657;28;21020;-76
2023/07/11 02:32:20;;;;;;;6.60;2.60;;;;;;;16.61;98.15;101374.91;5032206;28;20841;-76
2023/07/11 02:34:47;;;;;;;6.70;2.57;;;;;;;16.59;97.47;101374.41;5015391;28;21034;-76
2023/07/11 02:37:13;;;;;;;6.40;2.20;;;;;;;16.51;98.58;101374.41;5015048;28;20555;-76
2023/07/11 02:39:40;;;;;;;9.10;2.60;;;;;;;16.47;99.02;101370.72;5025722;28;20919;-76
2023/07/11 02:42:07;;;;;;;6.03;2.40;;;;;;;16.46;99.55;101369.09;5032789;28;20455;-76
2023/07/11 02:44:33;;;;;;;6.40;2.30;;;;;;;16.46;98.92;101374.56;5032731;28;20537;-76
2023/07/11 02:47:00;;;;;;;7.13;2.47;;;;;;;16.55;98.18;101369.91;5033605;28;20575;-76
2023/07/11 02:49:28;;;;;;;8.33;3.00;;;;;;;16.59;98.35;101370.88;5034265;28;20888;-76
2023/07/11 02:51:54;;;;;;;7.50;3.17;;;;;;;16.54;97.62;101366.38;5034575;28;21021;-76
2023/07/11 02:54:21;;;;;;;7.20;2.77;;;;;;;16.51;97.98;101375.25;5034880;28;20466;-76
2023/07/11 02:56:47;;;;;;;8.30;2.60;;;;;;;16.42;98.52;101366.19;5033077;28;20530;-76
2023/07/11 02:59:14;;;;;;;8.50;2.97;;;;;;;16.39;99.20;101362.19;5033175;28;20467;-75
2023/07/11 03:01:41;;;;;;;7.33;2.53;;;;;;;16.42;100.00;101365.41;5036060;28;20814;-76
2023/07/11 03:04:08;;;;;;;11.60;2.57;;;;;;;16.44;99.54;101357.69;5034063;28;20467;-76
2023/07/11 03:06:36;;;;;;;6.90;2.53;;;;;;;16.31;100.00;101364.94;5032402;28;20489;-76
2023/07/11 03:09:02;;;;;;;9.50;3.53;;;;;;;16.34;100.00;101365.09;5034263;28;20604;-76
2023/07/11 03:11:29;;;;;;;14.40;3.50;;;;;;;16.28;100.00;101360.88;5034357;28;20981;-76
2023/07/11 03:13:56;;;;;;;7.03;2.33;;;;;;;16.17;100.00;101370.53;5033515;28;20467;-76
2023/07/11 03:16:22;;;;;;;7.40;3.00;;;;;;;16.14;100.00;101363.78;5029971;28;20477;-76
2023/07/11 03:18:49;;;;;;;11.60;2.50;;;;;;;16.05;100.00;101362.94;5034433;28;20485;-76
2023/07/11 03:21:15;;;;;;;7.17;2.30;;;;;;;16.14;100.00;101368.44;5033066;28;20550;-76
2023/07/11 03:23:43;;;;;;;8.93;3.40;;;;;;;16.11;100.00;101364.44;5033864;28;20451;-76
2023/07/11 03:26:10;;;;;;;7.10;2.47;;;;;;;16.13;100.00;101370.38;5034130;28;20491;-75
2023/07/11 03:28:37;;;;;;;7.33;2.60;;;;;;;16.10;100.00;101376.47;5034040;28;20475;-75
2023/07/11 03:31:03;;;;;;;7.07;2.70;;;;;;;16.10;100.00;101376.47;5032214;28;20469;-75
2023/07/11 03:33:30;;;;;;;7.47;2.77;;;;;;;15.98;100.00;101380.94;5032936;28;20537;-74
2023/07/11 03:35:56;;;;;;;8.57;2.70;;;;;;;16.02;100.00;101381.91;5033968;28;20534;-75
2023/07/11 03:38:23;;;;;;;7.40;2.77;;;;;;;16.07;100.00;101379.03;5033903;28;20861;-74
2023/07/11 03:40:51;;;;;;;8.53;2.90;;;;;;;16.17;100.00;101386.94;5031428;28;20801;-74
2023/07/11 03:43:17;;;;;;;8.93;3.37;;;;;;;16.18;100.00;101393.22;5030962;28;20467;-74
2023/07/11 03:45:46;;;;;;;6.70;2.50;;;;;;;16.12;100.00;101387.91;5033783;28;20475;-74
2023/07/11 03:48:13;;;;;;;9.60;3.20;;;;;;;16.15;100.00;101394.63;5032651;28;20490;-74
2023/07/11 03:50:40;;;;;;;7.07;2.70;;;;;;;16.19;100.00;101387.41;5030005;28;20570;-75
2023/07/11 03:53:07;;;;;;;6.40;2.23;;;;;;;16.26;100.00;101395.97;5033661;28;20439;-75
2023/07/11 03:55:33;;;;;;;7.23;3.20;;;;;;;16.23;100.00;101393.84;5033567;28;20475;-75
2023/07/11 03:58:02;;;;;;;6.93;2.27;;;;;;;16.29;100.00;101392.59;5031958;28;20466;-75
2023/07/11 04:00:28;;;;;;;7.30;3.03;;;;;;;16.30;100.00;101391.47;5030277;28;20487;-74
2023/07/11 04:02:55;;;;;;;8.50;3.30;;;;;;;16.33;100.00;101393.53;5031956;28;20987;-75
2023/07/11 04:05:21;;;;;;;7.10;3.03;;;;;;;16.37;100.00;101380.84;5031914;28;20840;-75
2023/07/11 04:07:48;;;;;;;7.50;3.07;;;;;;;16.39;100.00;101395.00;5032252;28;20582;-75
2023/07/11 04:10:15;;;;;;;7.43;2.83;;;;;;;16.43;100.00;101384.25;5032499;28;20486;-74
2023/07/11 04:12:41;;;;;;;10.67;3.23;;;;;;;16.45;100.00;101384.72;5033540;28;20522;-74
2023/07/11 04:15:10;;;;;;;6.80;2.17;;;;;;;16.45;100.00;101373.78;5033202;28;20505;-74
2023/07/11 04:17:37;;;;;;;10.27;3.23;;;;;;;16.47;100.00;101377.00;5032411;28;20553;-74
2023/07/11 04:20:04;;;;;;;7.60;2.77;;;;;;;16.49;100.00;101382.94;5031879;28;20479;-74
2023/07/11 04:22:31;;;;;;;6.70;2.83;;;;;;;16.51;100.00;101374.41;5031378;28;20491;-72
2023/07/11 04:24:57;;;;;;;5.80;2.13;;;;;;;16.55;100.00;101389.06;5030883;28;20526;-75
2023/07/11 04:27:25;;;;;;;7.53;2.97;;;;;;;16.59;100.00;101379.09;5032466;28;20489;-74
2023/07/11 04:29:52;;;;;;;7.20;2.80;;;;;;;16.62;100.00;101381.19;5032432;28;20542;-75
2023/07/11 04:32:19;;;;;;;6.47;2.77;;;;;;;16.67;100.00;101377.47;5032744;28;20529;-74
2023/07/11 04:34:46;;;;;;;9.30;2.47;;;;;;;16.69;100.00;101378.78;5034866;28;20841;-75
2023/07/11 04:37:13;;;;;;;7.07;2.90;;;;;;;16.76;100.00;101386.50;5027840;28;20491;-75
2023/07/11 04:39:40;;;;;;;7.50;2.73;;;;;;;16.81;100.00;101383.59;5031341;28;20482;-75
2023/07/11 04:42:07;;;;;;;7.10;3.13;;;;;;;16.87;100.00;101380.41;5033842;28;20498;-75
2023/07/11 04:44:34;;;;;;;6.63;3.10;;;;;;;16.94;100.00;101379.88;5034554;28;20451;-75
2023/07/11 04:47:01;;;;;;;7.67;3.47;;;;;;;16.99;100.00;101371.50;5034571;28;20533;-76
2023/07/11 04:49:29;;;;;;;8.07;3.50;;;;;;;17.10;100.00;101380.19;5031935;28;20506;-75
2023/07/11 04:51:56;;;;;;;8.90;3.43;;;;;;;17.18;100.00;101371.16;5035580;28;20459;-76
2023/07/11 04:54:22;;;;;;;7.73;3.53;;;;;;;17.26;100.00;101373.03;5039214;28;20454;-76
2023/07/11 04:56:55;;;;;;;8.47;3.77;;;;;;;17.38;100.00;101370.44;5035589;28;20562;-76
2023/07/11 04:59:22;;;;;;;8.10;2.70;;;;;;;17.47;100.00;101369.59;5033923;28;20857;-75
2023/07/11 05:01:49;;;;;;;7.77;2.60;;;;;;;17.57;100.00;101370.03;5037132;28;20453;-76
2023/07/11 05:04:16;;;;;;;7.50;2.83;;;;;;;17.67;100.00;101370.81;5035559;28;20506;-76
2023/07/11 05:06:44;;;;;;;7.73;2.80;;;;;;;17.77;100.00;101365.78;5037303;28;20611;-76
2023/07/11 05:09:10;;;;;;;8.50;3.00;;;;;;;17.89;100.00;101365.09;5031750;28;20546;-76
2023/07/11 05:11:37;;;;;;;12.17;3.37;;;;;;;17.99;100.00;101351.00;5040106;28;20535;-76
2023/07/11 05:14:04;;;;;;;11.70;3.40;;;;;;;18.09;100.00;101358.03;5035218;28;20485;-76
2023/07/11 05:16:31;;;;;;;9.60;3.77;;;;;;;18.22;100.00;101359.72;5036876;28;20558;-76
2023/07/11 05:18:58;;;;;;;8.13;3.53;;;;;;;18.37;100.00;101359.13;5035714;28;20482;-76
2023/07/11 05:21:26;;;;;;;14.63;3.63;;;;;;;18.53;100.00;101353.00;5036062;28;20462;-76
2023/07/11 05:23:55;;;;;;;9.50;3.50;;;;;;;18.64;100.00;101346.00;5034812;28;20469;-76
2023/07/11 05:26:22;;;;;;;8.80;3.50;;;;;;;18.78;100.00;101354.75;5035406;28;21024;-76
2023/07/11 05:28:49;;;;;;;8.40;3.67;;;;;;;19.05;100.00;101349.81;5033507;28;20520;-76
2023/07/11 05:31:17;;;;;;;7.77;3.20;;;;;;;19.28;100.00;101350.97;5034663;28;21034;-76
2023/07/11 05:33:43;;;;;;;6.90;3.10;;;;;;;19.48;100.00;101349.31;5034562;28;20524;-76
2023/07/11 05:36:15;;;;;;;7.13;2.53;;;;;;;19.65;100.00;101351.03;5036541;28;20447;-76
2023/07/11 05:38:42;;;;;;;6.83;2.90;;;;;;;19.77;100.00;101353.78;5033860;28;20465;-75
2023/07/11 05:41:10;;;;;;;8.37;2.83;;;;;;;19.90;100.00;101355.38;5035929;28;20449;-76
2023/07/11 05:43:37;;;;;;;7.50;3.10;;;;;;;19.97;100.00;101354.81;5036197;28;20530;-75
2023/07/11 05:46:03;;;;;;;6.10;2.57;;;;;;;20.04;100.00;101344.00;5034709;28;20517;-74
2023/07/11 05:48:30;;;;;;;6.07;1.80;;;;;;;20.11;100.00;101348.94;5034127;28;20479;-74
2023/07/11 05:51:00;;;;;;;7.30;2.97;;;;;;;20.18;100.00;101332.63;5033455;28;20565;-75
2023/07/11 05:53:28;;;;;;;6.77;2.50;;;;;;;20.27;100.00;101344.28;5034613;28;20477;-74
2023/07/11 05:55:56;;;;;;;19.13;2.87;;;;;;;20.36;100.00;101338.66;5035582;28;20454;-75
2023/07/11 05:58:24;;;;;;;7.87;3.27;;;;;;;20.52;100.00;101347.81;5035782;28;20435;-74
2023/07/11 06:00:52;;;;;;;7.53;2.50;;;;;;;20.66;100.00;101339.16;5036159;28;20479;-77
2023/07/11 06:03:19;;;;;;;11.30;3.37;;;;;;;20.77;100.00;101348.53;5033713;28;20502;-75
2023/07/11 06:05:45;;;;;;;8.93;3.50;;;;;;;20.83;98.19;101330.56;5028417;28;20483;-74
2023/07/11 06:08:13;;;;;;;10.90;3.07;;;;;;;21.01;96.70;101335.75;5035028;28;20497;-77
2023/07/11 06:10:40;;;;;;;6.30;2.33;;;;;;;21.19;94.45;101331.50;5035613;28;20455;-75
2023/07/11 06:13:07;;;;;;;6.23;2.23;;;;;;;21.34;93.06;101330.75;5034984;28;20439;-75
2023/07/11 06:15:35;;;;;;;9.43;2.80;;;;;;;21.41;93.62;101330.91;5034046;28;20835;-76
2023/07/11 06:18:01;;;;;;;7.63;2.60;;;;;;;21.46;93.65;101337.31;5034629;28;20534;-75
2023/07/11 06:20:28;;;;;;;8.50;2.67;;;;;;;21.48;93.79;101332.25;5035358;28;20501;-77
2023/07/11 06:22:55;;;;;;;6.90;2.50;;;;;;;21.46;95.36;101332.59;5024812;28;20534;-76
2023/07/11 06:25:25;;;;;;;6.87;2.90;;;;;;;21.47;95.36;101327.88;5036273;28;20447;-76
2023/07/11 06:27:52;;;;;;;6.40;2.63;;;;;;;21.52;95.53;101328.44;5085591;22;20479;-81
2023/07/11 06:30:19;;;;;;;8.40;2.60;;;;;;;21.58;93.86;101326.19;5039077;28;20459;-84
2023/07/11 06:32:47;;;;;;;7.23;2.27;;;;;;;21.67;93.39;101332.31;5038304;28;20570;-80
2023/07/11 06:35:26;;;;;;;6.97;2.77;;;;;;;21.79;90.54;101336.94;5026079;28;20880;-82
2023/07/11 06:37:55;;;;;;;6.00;2.07;;;;;;;21.94;88.45;101338.06;5037701;28;20455;-80
2023/07/11 06:40:27;;;;;;;5.80;1.87;;;;;;;21.97;88.84;101331.81;5039419;28;20576;-80
2023/07/11 06:42:56;;;;;;;6.77;2.53;;;;;;;22.05;87.06;101328.06;5036821;28;20479;-80
2023/07/11 06:48:11;;;;;;;6.70;1.90;;;;;;;22.05;87.71;101328.84;4994926;28;20483;-82
2023/07/11 06:50:38;;;;;;;6.70;2.30;;;;;;;22.12;87.14;101325.47;4994681;28;20523;-81
2023/07/11 06:53:05;;;;;;;6.37;1.90;;;;;;;22.17;87.45;101325.19;4988546;28;20473;-80
2023/07/11 06:55:32;;;;;;;7.03;2.40;;;;;;;22.23;83.49;101331.22;4994789;28;21023;-79
2023/07/11 06:58:22;;;;;;;5.90;2.00;;;;;;;22.35;81.95;101331.88;5010490;28;20468;-79
2023/07/11 07:01:44;;;;;;;5.33;1.63;;;;;;;22.44;81.02;101328.91;5011172;28;20472;-80
2023/07/11 07:08:17;;;;;;;10.33;2.53;;;;;;;22.57;80.97;101329.53;4991853;28;20485;-80
2023/07/11 07:18:45;;;;;;;4.97;1.37;;;;;;;22.73;77.94;101321.97;4949681;29;20849;-80
2023/07/11 07:25:20;;;;;;;5.63;1.70;;;;;;;22.86;75.57;101312.34;4879142;29;20447;-81
2023/07/11 07:41:05;;;;;;;7.20;1.57;;;;;;;23.35;65.54;101317.16;5082910;28;21005;-74
2023/07/11 07:43:32;;;;;;;5.43;1.50;;;;;;;23.46;66.13;101311.81;5088632;28;20461;-75
2023/07/11 07:46:01;;;;;;;5.50;1.70;;;;;;;23.54;68.50;101321.81;5081767;28;20454;-75
2023/07/11 07:48:28;;;;;;;4.60;1.27;;;;;;;23.57;69.38;101318.31;5070509;28;20457;-75
2023/07/11 07:51:02;;;;;;;5.30;1.77;;;;;;;23.65;65.15;101319.25;5074605;28;20970;-74
2023/07/11 07:53:29;;;;;;;5.47;1.67;;;;;;;23.74;64.28;101308.72;5088231;28;20513;-75
2023/07/11 07:55:55;;;;;;;5.10;1.40;;;;;;;23.77;63.86;101304.38;5090654;28;20480;-75
2023/07/11 07:58:23;;;;;;;5.70;1.67;;;;;;;23.79;64.92;101304.81;5090316;28;20447;-75
2023/07/11 08:00:53;;;;;;;5.80;1.53;;;;;;;23.86;64.63;101300.19;5083209;28;20580;-73
2023/07/11 08:03:19;;;;;;;6.17;1.57;;;;;;;23.90;64.69;101298.25;5080009;28;20950;-75
2023/07/11 08:05:46;;;;;;;4.50;1.20;;;;;;;23.95;61.89;101301.88;5078998;28;20838;-74
2023/07/11 08:08:13;;;;;;;7.17;2.20;;;;;;;23.92;62.18;101290.38;5089978;28;21003;-73
2023/07/11 08:10:39;;;;;;;5.00;1.60;;;;;;;23.99;59.88;101291.66;5083090;28;20484;-73
2023/07/11 08:13:06;;;;;;;4.93;1.40;;;;;;;24.01;62.11;101281.81;5072529;28;20472;-74
2023/07/11 08:15:34;;;;;;;5.10;1.20;;;;;;;24.10;62.55;101284.28;5068666;28;20479;-74
2023/07/11 08:18:00;;;;;;;4.93;1.30;;;;;;;24.21;59.08;101287.19;5068899;28;20480;-74
2023/07/11 08:20:27;;;;;;;6.23;1.50;;;;;;;24.24;61.68;101280.91;5066369;28;20489;-73
2023/07/11 08:22:54;;;;;;;4.47;1.23;;;;;;;24.32;65.30;101279.81;5075505;28;20469;-74
2023/07/11 08:25:21;;;;;;;4.97;1.40;;;;;;;24.38;65.58;101281.09;5086953;28;20953;-73
2023/07/11 08:27:48;;;;;;;6.00;1.57;;;;;;;24.40;58.39;101271.22;5089988;28;20439;-73
2023/07/11 08:30:15;;;;;;;4.93;1.10;;;;;;;24.53;54.87;101279.28;5086284;28;20534;-75
2023/07/11 08:32:43;;;;;;;4.07;0.77;;;;;;;24.61;52.38;101281.75;5088277;28;20440;-74
2023/07/11 08:35:10;;;;;;;6.97;1.33;;;;;;;24.66;53.98;101275.06;5082389;28;20467;-74
2023/07/11 08:37:36;;;;;;;4.50;1.30;;;;;;;24.61;52.14;101269.84;5079836;28;20461;-74
2023/07/11 08:40:05;;;;;;;4.53;1.00;;;;;;;24.65;53.20;101265.16;5069137;28;21021;-73
2023/07/11 08:42:35;;;;;;;4.50;1.03;;;;;;;24.69;56.10;101260.44;5085326;28;20462;-74
2023/07/11 08:45:11;;;;;;;4.40;0.90;;;;;;;24.81;51.65;101264.91;5082469;28;20550;-74
2023/07/11 08:47:43;;;;;;;4.13;0.70;;;;;;;25.01;48.25;101265.47;5089370;28;20425;-74
2023/07/11 08:50:15;;;;;;;4.10;0.67;;;;;;;25.09;50.87;101256.06;5089111;28;20452;-74
2023/07/11 08:52:43;;;;;;;4.53;0.70;;;;;;;25.07;45.80;101253.66;5060220;28;20545;-73
2023/07/11 08:55:14;;;;;;;4.23;0.73;;;;;;;25.13;46.75;101252.16;5061818;28;20454;-74
2023/07/11 08:57:45;;;;;;;5.40;0.97;;;;;;;25.17;47.08;101252.19;5059321;28;20459;-74
2023/07/11 09:00:16;;;;;;;4.30;0.80;;;;;;;25.32;47.05;101253.06;5073621;28;20497;-73
2023/07/11 09:02:54;;;;;;;5.50;1.30;;;;;;;25.38;50.65;101241.25;5047330;28;20565;-73
2023/07/11 09:05:36;;;;;;;4.60;0.80;;;;;;;25.48;47.26;101238.91;5045729;28;20445;-73
2023/07/11 09:08:03;;;;;;;5.53;0.90;;;;;;;25.58;49.51;101229.84;5051780;28;20516;-71
2023/07/11 09:10:41;;;;;;;5.80;1.13;;;;;;;25.60;48.61;101230.28;5047765;28;20471;-73
2023/07/11 09:13:39;;;;;;;4.57;1.10;;;;;;;25.63;47.10;101226.69;5052343;28;20517;-74
2023/07/11 09:16:13;;;;;;;4.20;0.70;;;;;;;25.60;48.79;101221.94;5052589;28;20485;-75
2023/07/11 09:18:49;;;;;;;4.47;0.93;;;;;;;25.54;49.04;101220.72;5055532;28;20438;-75
2023/07/11 09:21:35;;;;;;;5.40;1.07;;;;;;;25.50;50.66;101220.72;5055314;28;20854;-75
2023/07/11 09:24:10;;;;;;;5.03;1.10;;;;;;;25.59;47.25;101223.94;5057875;28;20493;-74
2023/07/11 09:26:46;;;;;;;5.20;1.43;;;;;;;25.64;48.25;101228.31;5055243;28;20465;-74
2023/07/11 09:29:12;;;;;;;5.37;1.77;;;;;;;25.59;51.45;101223.94;5052925;28;20851;-74
2023/07/11 09:31:42;;;;;;;5.33;1.37;;;;;;;25.65;50.24;101227.91;5054363;28;20997;-74
2023/07/11 09:34:19;;;;;;;11.00;1.43;;;;;;;25.75;52.21;101218.03;5055085;28;20442;-74
2023/07/11 09:36:49;;;;;;;5.30;1.03;;;;;;;25.81;52.51;101215.72;5055259;28;20450;-74
2023/07/11 09:39:23;;;;;;;5.17;1.00;;;;;;;25.87;52.55;101211.41;5054996;28;20501;-74
2023/07/11 09:41:55;;;;;;;4.67;1.10;;;;;;;25.98;53.54;101215.00;5055004;28;20434;-75
2023/07/11 09:44:22;;;;;;;4.90;1.30;;;;;;;26.07;51.20;101209.06;5054856;28;20427;-75
2023/07/11 09:46:49;;;;;;;6.17;1.43;;;;;;;26.19;51.90;101205.94;5060896;28;20462;-74
2023/07/11 09:49:20;;;;;;;4.43;1.03;;;;;;;26.33;49.52;101205.97;5054870;28;20568;-74
2023/07/11 09:51:54;;;;;;;4.87;1.20;;;;;;;26.37;48.31;101201.22;5052136;28;20447;-75
2023/07/11 09:54:22;;;;;;;7.13;1.20;;;;;;;26.40;48.36;101197.66;5054832;28;20459;-72
2023/07/11 09:56:50;;;;;;;5.20;1.10;;;;;;;26.52;47.71;101199.31;5065984;28;20478;-72
2023/07/11 09:59:18;;;;;;;4.10;0.90;;;;;;;26.50;48.55;101198.09;5054566;28;20577;-72
2023/07/11 10:01:51;;;;;;;6.03;1.43;;;;;;;26.49;49.73;101196.50;5054377;28;20474;-73
2023/07/11 10:04:21;;;;;;;4.80;1.23;;;;;;;26.59;51.46;101190.16;5052588;28;20553;-73
2023/07/11 10:06:56;;;;;;;6.73;1.50;;;;;;;26.57;50.58;101187.00;5039034;28;20489;-72
2023/07/11 10:09:26;;;;;;;5.63;1.10;;;;;;;26.69;49.71;101178.25;5052198;28;20481;-72
2023/07/11 10:11:54;;;;;;;5.00;1.27;;;;;;;26.82;49.09;101181.44;5062411;28;20563;-72
2023/07/11 10:14:26;;;;;;;5.27;1.43;;;;;;;26.92;49.58;101180.63;5048402;28;20537;-72
2023/07/11 10:16:52;;;;;;;6.67;1.03;;;;;;;26.90;51.03;101172.69;5054095;28;20533;-72
2023/07/11 10:19:19;;;;;;;4.20;1.00;;;;;;;26.96;50.09;101172.28;5054197;28;20533;-73
2023/07/11 10:21:48;;;;;;;4.67;1.00;;;;;;;27.06;50.27;101168.69;5052972;28;20478;-72
2023/07/11 10:24:18;;;;;;;7.40;1.17;;;;;;;27.11;52.23;101154.41;5059289;28;20499;-73
2023/07/11 10:26:48;;;;;;;4.60;1.00;;;;;;;27.20;51.85;101152.00;5061426;28;20481;-73
2023/07/11 10:29:18;;;;;;;4.50;1.53;;;;;;;27.27;47.80;101152.00;5053779;28;20472;-72
2023/07/11 10:31:50;;;;;;;5.07;1.33;;;;;;;27.25;50.02;101148.03;5054135;28;20461;-71
2023/07/11 10:34:23;;;;;;;4.80;1.20;;;;;;;27.30;48.24;101139.25;5053833;28;20517;-72
2023/07/11 10:36:52;;;;;;;5.17;1.57;;;;;;;27.40;46.20;101144.81;5053855;28;20533;-72
2023/07/11 10:39:25;;;;;;;4.43;1.00;;;;;;;27.46;48.07;101147.16;5053654;28;20513;-72
2023/07/11 10:41:58;;;;;;;7.23;1.20;;;;;;;27.55;43.71;101153.09;5059929;28;20885;-73
2023/07/11 10:44:35;;;;;;;4.40;1.00;;;;;;;27.60;43.81;101155.47;5070581;28;20450;-72
2023/07/11 10:47:04;;;;;;;5.27;1.37;;;;;;;27.54;43.63;101149.53;5063782;28;20534;-73
2023/07/11 10:49:37;;;;;;;8.60;1.43;;;;;;;27.49;45.26;101143.56;5052579;28;20897;-73
2023/07/11 10:52:09;;;;;;;4.50;1.30;;;;;;;27.49;44.93;101143.56;5033906;28;20431;-73
2023/07/11 10:54:45;;;;;;;4.30;1.00;;;;;;;27.64;46.38;101142.31;5041851;28;20431;-72
2023/07/11 10:57:17;;;;;;;6.10;1.23;;;;;;;27.79;44.05;101143.06;5052379;28;20557;-72
2023/07/11 10:59:44;;;;;;;4.43;1.13;;;;;;;27.75;45.92;101136.72;5053072;28;20997;-71
2023/07/11 11:02:16;;;;;;;5.77;1.80;;;;;;;27.85;47.39;101128.31;5053586;28;20438;-73
2023/07/11 11:05:02;;;;;;;4.80;1.10;;;;;;;28.00;47.16;101123.44;5052434;28;20900;-72
2023/07/11 11:07:34;;;;;;;4.80;1.20;;;;;;;28.13;46.21;101120.97;5044297;28;20519;-73
2023/07/11 11:10:11;;;;;;;4.60;1.10;;;;;;;28.26;46.01;101116.50;5055306;28;20485;-73
2023/07/11 11:12:41;;;;;;;5.40;1.17;;;;;;;28.43;46.83;101116.81;5053006;28;20438;-73
2023/07/11 11:15:38;;;;;;;4.30;0.90;;;;;;;28.65;44.40;101110.63;5051793;28;20446;-72
2023/07/11 11:18:21;;;;;;;4.60;1.00;;;;;;;28.82;43.44;101103.31;5050114;28;20439;-70
2023/07/11 11:20:58;;;;;;;4.40;1.10;;;;;;;28.97;44.99;101105.97;5048511;28;20490;-72
2023/07/11 11:23:37;;;;;;;4.80;1.30;;;;;;;29.29;44.46;101098.00;5051025;28;20951;-72
2023/07/11 11:26:18;;;;;;;5.43;1.60;;;;;;;29.73;40.35;101099.06;5065501;28;20453;-73
2023/07/11 11:28:56;;;;;;;5.13;1.10;;;;;;;30.12;39.57;101094.91;5037614;28;20454;-72
2023/07/11 11:31:26;;;;;;;5.13;1.47;;;;;;;30.50;39.52;101095.47;5056185;28;20462;-72
2023/07/11 11:34:11;;;;;;;5.17;1.53;;;;;;;30.96;40.36;101090.31;5060575;28;20457;-70
2023/07/11 11:36:54;;;;;;;5.87;1.70;;;;;;;31.40;40.40;101089.03;5065412;28;20462;-72
2023/07/11 11:39:32;;;;;;;5.63;1.10;;;;;;;31.94;38.33;101083.03;5067472;28;20948;-72
2023/07/11 11:42:06;;;;;;;5.80;1.43;;;;;;;32.23;38.59;101079.53;5068721;28;21126;-72
2023/07/11 11:44:39;;;;;;;4.53;1.30;;;;;;;32.63;39.31;101077.34;5065960;28;20453;-72
2023/07/11 11:47:08;;;;;;;5.27;1.57;;;;;;;32.77;37.31;101076.16;5071693;28;20533;-72
2023/07/11 11:49:36;;;;;;;5.20;1.40;;;;;;;33.05;38.45;101068.97;5060985;28;20560;-74
2023/07/11 11:52:03;;;;;;;4.30;1.00;;;;;;;33.37;36.89;101074.44;5062523;28;20496;-72
2023/07/11 11:54:36;;;;;;;4.40;1.10;;;;;;;33.52;38.41;101074.06;5053154;28;20549;-72
2023/07/11 11:57:05;;;;;;;5.30;1.40;;;;;;;33.65;36.45;101069.22;5051172;28;20458;-72
2023/07/11 11:59:32;;;;;;;5.10;1.53;;;;;;;33.79;36.90;101065.97;5069253;28;20487;-72
2023/07/11 12:02:10;;;;;;;4.40;1.10;;;;;;;33.95;36.75;101059.41;5055993;28;20486;-72
2023/07/11 12:04:53;;;;;;;5.50;1.37;;;;;;;34.12;34.72;101057.28;5060846;28;20449;-71